Time;durP1;ratioP1;P1;durP2;ratioP2;P2;SDS_P1;SDS_P2;PMS_P1;PMS_P2;Temp;Humidity;BMP_temperature;BMP_pressure;BME280_temperature;BME280_humidity;BME280_pressure;Samples;Min_cycle;Max_cycle;Signal;HPM_P1;HPM_P2
2022/08/27 00:00:46;;;;;;;7.72;2.00;;;;;;;;;;5028918;28;20194;-65
2022/08/27 00:03:11;;;;;;;7.85;1.77;;;;;;;;;;5026323;28;20529;-65
2022/08/27 00:05:38;;;;;;;4.93;1.70;;;;;;;;;;5017662;28;20611;-65
2022/08/27 00:08:05;;;;;;;6.53;1.80;;;;;;;;;;5029142;28;20190;-65
2022/08/27 00:10:31;;;;;;;10.32;3.00;;;;;;;;;;5030544;28;20273;-65
2022/08/27 00:12:56;;;;;;;8.65;1.95;;;;;;;;;;5029657;28;20289;-65
2022/08/27 00:15:22;;;;;;;4.93;2.03;;;;;;;;;;5029801;28;20268;-65
2022/08/27 00:17:48;;;;;;;6.40;2.00;;;;;;;;;;5029448;28;20186;-65
2022/08/27 00:20:16;;;;;;;5.47;2.55;;;;;;;;;;5030025;28;20182;-65
2022/08/27 00:22:42;;;;;;;6.75;2.20;;;;;;;;;;5029549;28;20269;-65
2022/08/27 00:25:08;;;;;;;8.38;2.15;;;;;;;;;;5024977;28;20309;-65
2022/08/27 00:27:33;;;;;;;7.18;2.03;;;;;;;;;;5017600;28;20237;-65
2022/08/27 00:29:59;;;;;;;7.82;1.60;;;;;;;;;;5024572;28;20195;-66
2022/08/27 00:32:24;;;;;;;7.45;2.05;;;;;;;;;;5025616;28;20582;-65
2022/08/27 00:34:51;;;;;;;6.40;1.77;;;;;;;;;;5023535;28;20217;-65
2022/08/27 00:37:17;;;;;;;7.50;1.80;;;;;;;;;;5028549;28;20216;-65
2022/08/27 00:39:42;;;;;;;5.85;2.10;;;;;;;;;;5020906;28;20178;-65
2022/08/27 00:42:08;;;;;;;8.00;2.00;;;;;;;;;;5019341;28;20185;-66
2022/08/27 00:44:34;;;;;;;4.50;1.90;;;;;;;;;;5019842;28;20183;-65
2022/08/27 00:47:03;;;;;;;7.70;2.50;;;;;;;;;;5025800;28;20202;-66
2022/08/27 00:49:47;;;;;;;9.85;1.98;;;;;;;;;;5025066;28;20185;-65
2022/08/27 00:52:26;;;;;;;6.93;1.70;;;;;;;;;;5023661;28;20193;-65
2022/08/27 00:54:57;;;;;;;8.52;2.10;;;;;;;;;;5028734;28;20190;-66
2022/08/27 00:57:23;;;;;;;5.70;2.08;;;;;;;;;;5026525;28;20189;-64
2022/08/27 00:59:48;;;;;;;5.28;2.13;;;;;;;;;;5024986;28;20194;-65
2022/08/27 01:02:20;;;;;;;6.13;2.30;;;;;;;;;;5015920;28;20193;-65
2022/08/27 01:05:14;;;;;;;5.07;1.83;;;;;;;;;;5028436;28;20587;-65
2022/08/27 01:07:44;;;;;;;5.07;2.00;;;;;;;;;;5027942;28;20272;-65
2022/08/27 01:10:13;;;;;;;5.70;2.03;;;;;;;;;;5029211;28;20186;-65
2022/08/27 01:12:38;;;;;;;7.05;2.03;;;;;;;;;;5014387;28;20558;-65
2022/08/27 01:15:08;;;;;;;6.45;2.17;;;;;;;;;;5023509;28;20197;-65
2022/08/27 01:17:35;;;;;;;8.30;1.83;;;;;;;;;;5029254;28;20223;-65
2022/08/27 01:20:07;;;;;;;8.10;2.05;;;;;;;;;;5026792;28;20248;-65
2022/08/27 01:22:49;;;;;;;5.53;2.10;;;;;;;;;;5026630;28;20217;-65
2022/08/27 01:25:16;;;;;;;7.30;2.15;;;;;;;;;;5024346;28;20651;-65
2022/08/27 01:27:43;;;;;;;6.75;2.90;;;;;;;;;;5026802;28;20186;-65
2022/08/27 01:30:12;;;;;;;5.57;1.88;;;;;;;;;;5013559;28;20182;-65
2022/08/27 01:32:38;;;;;;;8.52;2.17;;;;;;;;;;5036818;28;20210;-64
2022/08/27 01:35:06;;;;;;;8.77;2.22;;;;;;;;;;5028845;28;20186;-65
2022/08/27 01:37:33;;;;;;;5.70;2.10;;;;;;;;;;5028852;28;20566;-65
2022/08/27 01:39:58;;;;;;;6.40;2.20;;;;;;;;;;5027448;28;20185;-64
2022/08/27 01:42:32;;;;;;;8.55;2.40;;;;;;;;;;5026853;28;20516;-65
2022/08/27 01:45:00;;;;;;;6.85;2.28;;;;;;;;;;5026924;28;20186;-65
2022/08/27 01:47:27;;;;;;;8.02;2.22;;;;;;;;;;5025274;28;20178;-65
2022/08/27 01:49:53;;;;;;;8.20;2.30;;;;;;;;;;5019570;28;20190;-67
2022/08/27 01:52:21;;;;;;;8.73;2.63;;;;;;;;;;5027492;28;20193;-65
2022/08/27 01:54:47;;;;;;;5.60;2.53;;;;;;;;;;5026922;28;20206;-65
2022/08/27 01:57:13;;;;;;;6.90;2.30;;;;;;;;;;5020276;28;20262;-65
2022/08/27 01:59:39;;;;;;;9.32;2.53;;;;;;;;;;5024152;28;20194;-65
2022/08/27 02:02:06;;;;;;;6.22;2.45;;;;;;;;;;5025428;28;20308;-65
2022/08/27 02:04:32;;;;;;;10.65;2.72;;;;;;;;;;5026469;28;20182;-65
2022/08/27 02:06:58;;;;;;;7.63;2.47;;;;;;;;;;5028054;28;20189;-65
2022/08/27 02:09:24;;;;;;;7.55;2.58;;;;;;;;;;5021160;28;20429;-65
2022/08/27 02:11:49;;;;;;;12.65;2.60;;;;;;;;;;5027453;28;20189;-65
2022/08/27 02:14:15;;;;;;;6.97;2.28;;;;;;;;;;5015246;28;20193;-65
2022/08/27 02:16:41;;;;;;;5.45;2.42;;;;;;;;;;5028510;28;20196;-65
2022/08/27 02:19:07;;;;;;;8.63;2.70;;;;;;;;;;5017258;28;20182;-65
2022/08/27 02:21:32;;;;;;;8.27;2.85;;;;;;;;;;5028550;28;20181;-69
2022/08/27 02:23:58;;;;;;;8.02;2.58;;;;;;;;;;5011505;28;20226;-65
2022/08/27 02:26:23;;;;;;;8.05;2.30;;;;;;;;;;5028899;28;20202;-65
2022/08/27 02:28:49;;;;;;;6.68;2.70;;;;;;;;;;5016843;28;20198;-65
2022/08/27 02:31:17;;;;;;;7.55;2.88;;;;;;;;;;5033932;28;20193;-65
2022/08/27 02:33:42;;;;;;;7.88;2.28;;;;;;;;;;5034577;28;20519;-65
2022/08/27 02:36:08;;;;;;;6.88;2.70;;;;;;;;;;5027088;28;20328;-65
2022/08/27 02:38:34;;;;;;;11.48;3.15;;;;;;;;;;5028529;28;20186;-65
2022/08/27 02:40:59;;;;;;;9.32;3.25;;;;;;;;;;5027946;28;20205;-65
2022/08/27 02:43:24;;;;;;;8.93;3.05;;;;;;;;;;5027110;28;20182;-65
2022/08/27 02:45:50;;;;;;;7.43;2.85;;;;;;;;;;5026316;28;20194;-65
2022/08/27 02:48:16;;;;;;;13.07;3.40;;;;;;;;;;5009277;28;20186;-65
2022/08/27 02:50:42;;;;;;;6.88;2.70;;;;;;;;;;5021715;28;20212;-65
2022/08/27 02:53:09;;;;;;;11.20;3.15;;;;;;;;;;5024558;28;20658;-65
2022/08/27 02:55:35;;;;;;;7.72;3.42;;;;;;;;;;5028474;28;20320;-65
2022/08/27 02:58:00;;;;;;;6.10;3.03;;;;;;;;;;5028211;28;20189;-65
2022/08/27 03:00:27;;;;;;;8.50;3.17;;;;;;;;;;5028995;28;20585;-65
2022/08/27 03:02:53;;;;;;;6.38;2.80;;;;;;;;;;5022025;28;20274;-65
2022/08/27 03:05:19;;;;;;;6.30;3.25;;;;;;;;;;5025083;28;20687;-65
2022/08/27 03:07:45;;;;;;;9.80;2.85;;;;;;;;;;5034969;28;20174;-65
2022/08/27 03:10:12;;;;;;;8.30;3.35;;;;;;;;;;5025334;28;20597;-65
2022/08/27 03:12:38;;;;;;;8.73;3.15;;;;;;;;;;5020378;28;20191;-65
2022/08/27 03:15:06;;;;;;;13.18;3.22;;;;;;;;;;5028321;28;20232;-65
2022/08/27 03:20:16;;;;;;;7.40;3.17;;;;;;;;;;5031260;28;20661;-65
2022/08/27 03:22:41;;;;;;;8.63;3.08;;;;;;;;;;5031518;28;20178;-65
2022/08/27 03:25:08;;;;;;;6.35;2.83;;;;;;;;;;5030306;28;20233;-65
2022/08/27 03:27:33;;;;;;;9.50;3.00;;;;;;;;;;5031587;28;20182;-65
2022/08/27 03:30:02;;;;;;;9.50;3.10;;;;;;;;;;5029860;28;20190;-65
2022/08/27 03:32:27;;;;;;;13.57;3.53;;;;;;;;;;5031322;28;20757;-65
2022/08/27 03:34:57;;;;;;;5.85;2.72;;;;;;;;;;5023172;28;20206;-65
2022/08/27 03:37:22;;;;;;;4.60;3.40;;;;;;;;;;5021857;28;20224;-65
2022/08/27 03:39:47;;;;;;;6.60;3.20;;;;;;;;;;5024562;28;20277;-65
2022/08/27 03:42:13;;;;;;;7.78;3.45;;;;;;;;;;5011247;28;20321;-65
2022/08/27 03:44:39;;;;;;;8.23;3.10;;;;;;;;;;5026868;28;20450;-65
2022/08/27 03:47:04;;;;;;;10.70;3.45;;;;;;;;;;5029640;28;20182;-65
2022/08/27 03:49:30;;;;;;;10.18;3.30;;;;;;;;;;5023580;28;20593;-65
2022/08/27 03:51:56;;;;;;;11.88;3.30;;;;;;;;;;5027033;28;20190;-65
2022/08/27 03:54:21;;;;;;;9.63;3.55;;;;;;;;;;5015291;28;20210;-65
2022/08/27 03:56:47;;;;;;;8.05;3.30;;;;;;;;;;5045359;28;20276;-65
2022/08/27 03:59:14;;;;;;;6.18;3.40;;;;;;;;;;5036347;28;20246;-65
2022/08/27 04:01:39;;;;;;;5.85;3.17;;;;;;;;;;5032353;28;20257;-65
2022/08/27 04:04:05;;;;;;;6.90;3.50;;;;;;;;;;5013016;28;20274;-65
2022/08/27 04:06:33;;;;;;;10.55;3.45;;;;;;;;;;5030585;28;20182;-65
2022/08/27 04:08:59;;;;;;;9.40;3.67;;;;;;;;;;5031532;28;20250;-65
2022/08/27 04:11:24;;;;;;;12.80;4.30;;;;;;;;;;5034667;28;20178;-65
2022/08/27 04:13:50;;;;;;;6.80;3.53;;;;;;;;;;5028885;28;20210;-65
2022/08/27 04:16:16;;;;;;;9.27;3.72;;;;;;;;;;5027892;28;20213;-65
2022/08/27 04:18:41;;;;;;;10.57;4.10;;;;;;;;;;5020171;28;20217;-65
2022/08/27 04:21:09;;;;;;;6.55;3.63;;;;;;;;;;5022635;28;20190;-64
2022/08/27 04:23:35;;;;;;;14.18;3.53;;;;;;;;;;5024442;28;20178;-64
2022/08/27 04:26:04;;;;;;;5.47;3.53;;;;;;;;;;5019257;28;20230;-64
2022/08/27 04:28:29;;;;;;;9.68;3.80;;;;;;;;;;5023961;28;20210;-64
2022/08/27 04:30:55;;;;;;;13.77;3.67;;;;;;;;;;5028259;28;20224;-65
2022/08/27 04:33:20;;;;;;;10.77;3.97;;;;;;;;;;5021645;28;20234;-65
2022/08/27 04:35:45;;;;;;;8.90;4.07;;;;;;;;;;5026942;28;20197;-65
2022/08/27 04:38:11;;;;;;;7.72;3.17;;;;;;;;;;5021900;28;20186;-65
2022/08/27 04:43:21;;;;;;;7.10;3.50;;;;;;;;;;5027218;28;20248;-65
2022/08/27 04:45:49;;;;;;;9.10;3.83;;;;;;;;;;5019306;28;20183;-64
2022/08/27 04:48:16;;;;;;;7.20;3.72;;;;;;;;;;5030664;28;20210;-65
2022/08/27 04:50:43;;;;;;;6.95;3.63;;;;;;;;;;5017776;28;20252;-65
2022/08/27 04:53:11;;;;;;;8.18;3.50;;;;;;;;;;5023051;28;20206;-65
2022/08/27 04:55:45;;;;;;;9.98;3.80;;;;;;;;;;5016858;28;20978;-65
2022/08/27 04:58:10;;;;;;;7.20;3.30;;;;;;;;;;5028540;28;20185;-65
2022/08/27 05:01:02;;;;;;;7.28;3.47;;;;;;;;;;5028810;28;20182;-65
2022/08/27 05:03:27;;;;;;;10.13;4.05;;;;;;;;;;5016732;28;20280;-65
2022/08/27 05:06:00;;;;;;;5.30;3.28;;;;;;;;;;5013151;28;20269;-65
2022/08/27 05:08:25;;;;;;;5.90;3.60;;;;;;;;;;5028106;28;20213;-65
2022/08/27 05:10:50;;;;;;;8.13;3.63;;;;;;;;;;5020596;28;20234;-65
2022/08/27 05:13:18;;;;;;;9.70;3.50;;;;;;;;;;5019935;28;20267;-65
2022/08/27 05:15:43;;;;;;;7.10;3.50;;;;;;;;;;5023388;28;20190;-65
2022/08/27 05:18:09;;;;;;;11.10;3.65;;;;;;;;;;5028186;28;20182;-65
2022/08/27 05:20:44;;;;;;;9.30;3.60;;;;;;;;;;5023770;28;20277;-65
2022/08/27 05:23:10;;;;;;;10.23;3.58;;;;;;;;;;5028740;28;20467;-66
2022/08/27 05:25:41;;;;;;;6.20;3.53;;;;;;;;;;5020196;28;20222;-65
2022/08/27 05:28:07;;;;;;;7.68;3.80;;;;;;;;;;5021918;28;20190;-65
2022/08/27 05:30:42;;;;;;;8.52;3.72;;;;;;;;;;5022826;28;20228;-65
2022/08/27 05:33:09;;;;;;;9.45;3.55;;;;;;;;;;5022356;28;20209;-65
2022/08/27 05:35:45;;;;;;;11.10;3.85;;;;;;;;;;5025560;28;20182;-65
2022/08/27 05:38:11;;;;;;;8.85;3.88;;;;;;;;;;5024558;28;20201;-65
2022/08/27 05:40:39;;;;;;;9.40;4.38;;;;;;;;;;5024806;28;20182;-65
2022/08/27 05:43:05;;;;;;;9.07;3.92;;;;;;;;;;5023082;28;20174;-64
2022/08/27 05:45:32;;;;;;;6.40;3.67;;;;;;;;;;5024645;28;21089;-65
2022/08/27 05:47:57;;;;;;;9.55;4.10;;;;;;;;;;5023888;28;20178;-65
2022/08/27 05:50:24;;;;;;;7.65;4.10;;;;;;;;;;5024594;28;20525;-65
2022/08/27 05:52:50;;;;;;;10.40;4.22;;;;;;;;;;5022433;28;20261;-65
2022/08/27 05:55:15;;;;;;;7.30;4.45;;;;;;;;;;5023509;28;20626;-65
2022/08/27 05:57:41;;;;;;;10.65;4.82;;;;;;;;;;5023516;28;20569;-65
2022/08/27 06:02:51;;;;;;;6.80;4.07;;;;;;;;;;5026299;28;20746;-65
2022/08/27 06:05:16;;;;;;;8.95;4.38;;;;;;;;;;5020452;28;20179;-65
2022/08/27 06:07:42;;;;;;;10.65;4.32;;;;;;;;;;5021918;28;20246;-65
2022/08/27 06:10:08;;;;;;;8.88;5.10;;;;;;;;;;5022123;28;20270;-65
2022/08/27 06:12:33;;;;;;;8.23;4.55;;;;;;;;;;5021837;28;20196;-65
2022/08/27 06:14:59;;;;;;;8.48;4.20;;;;;;;;;;5026043;28;20342;-65
2022/08/27 06:17:25;;;;;;;10.80;4.50;;;;;;;;;;5023941;28;20194;-65
2022/08/27 06:19:50;;;;;;;8.85;4.20;;;;;;;;;;5025639;28;20213;-65
2022/08/27 06:22:16;;;;;;;10.93;3.95;;;;;;;;;;5020635;28;20224;-65
2022/08/27 06:24:42;;;;;;;9.43;4.55;;;;;;;;;;5023159;28;20670;-65
2022/08/27 06:27:14;;;;;;;8.15;4.03;;;;;;;;;;5023211;28;20209;-65
2022/08/27 06:29:40;;;;;;;11.88;5.20;;;;;;;;;;5023065;28;20321;-65
2022/08/27 06:32:08;;;;;;;9.10;4.03;;;;;;;;;;5030619;28;20285;-65
2022/08/27 06:34:34;;;;;;;9.80;3.85;;;;;;;;;;5017611;28;20246;-65
2022/08/27 06:36:59;;;;;;;8.43;3.70;;;;;;;;;;5020706;28;20701;-65
2022/08/27 06:39:24;;;;;;;6.82;3.80;;;;;;;;;;5025078;28;20197;-65
2022/08/27 06:41:50;;;;;;;6.32;3.90;;;;;;;;;;5029526;28;20186;-65
2022/08/27 06:44:15;;;;;;;12.70;4.15;;;;;;;;;;5026681;28;20192;-65
2022/08/27 06:46:41;;;;;;;9.10;3.67;;;;;;;;;;5028282;28;20296;-65
2022/08/27 06:49:08;;;;;;;7.95;3.63;;;;;;;;;;5028656;28;20632;-65
2022/08/27 06:51:35;;;;;;;8.65;3.53;;;;;;;;;;5023305;28;20236;-65
2022/08/27 06:54:05;;;;;;;8.95;3.60;;;;;;;;;;5025536;28;20209;-65
2022/08/27 06:56:31;;;;;;;7.93;3.72;;;;;;;;;;5028820;28;20175;-65
2022/08/27 06:58:59;;;;;;;5.15;3.17;;;;;;;;;;5029769;28;20224;-65
2022/08/27 07:01:31;;;;;;;7.20;3.22;;;;;;;;;;5028831;28;20186;-65
2022/08/27 07:03:58;;;;;;;8.25;3.78;;;;;;;;;;5028073;28;20621;-67
2022/08/27 07:06:26;;;;;;;11.13;3.60;;;;;;;;;;5020940;28;20182;-65
2022/08/27 07:08:51;;;;;;;9.23;3.30;;;;;;;;;;5031943;28;20273;-65
2022/08/27 07:11:17;;;;;;;5.65;3.05;;;;;;;;;;5030773;28;20632;-65
2022/08/27 07:13:45;;;;;;;8.55;2.95;;;;;;;;;;5027458;28;20670;-65
2022/08/27 07:16:13;;;;;;;6.07;3.17;;;;;;;;;;5023617;28;20186;-65
2022/08/27 07:18:39;;;;;;;6.88;2.70;;;;;;;;;;5029684;28;20687;-65
2022/08/27 07:21:06;;;;;;;7.07;2.83;;;;;;;;;;5029664;28;20186;-65
2022/08/27 07:23:32;;;;;;;3.22;2.15;;;;;;;;;;5031466;28;20661;-67
2022/08/27 07:25:58;;;;;;;6.93;3.28;;;;;;;;;;5026438;28;20232;-65
2022/08/27 07:28:24;;;;;;;4.07;2.28;;;;;;;;;;5029759;28;20682;-65
2022/08/27 07:30:50;;;;;;;6.53;2.42;;;;;;;;;;5030227;28;20741;-67
2022/08/27 07:33:15;;;;;;;6.53;2.60;;;;;;;;;;5029969;28;20549;-66
2022/08/27 07:35:41;;;;;;;6.00;2.63;;;;;;;;;;5028050;28;20251;-66
2022/08/27 07:38:10;;;;;;;6.13;2.15;;;;;;;;;;5027972;28;20190;-65
2022/08/27 07:40:35;;;;;;;11.70;2.10;;;;;;;;;;5028428;28;20178;-67
2022/08/27 07:45:47;;;;;;;7.10;1.50;;;;;;;;;;5027198;28;20185;-66
2022/08/27 07:48:15;;;;;;;6.15;1.45;;;;;;;;;;5028834;28;20193;-66
2022/08/27 07:50:42;;;;;;;4.43;1.25;;;;;;;;;;5029297;28;20188;-69
2022/08/27 07:53:07;;;;;;;4.93;1.33;;;;;;;;;;5026567;28;20229;-65
2022/08/27 07:55:37;;;;;;;7.93;1.50;;;;;;;;;;5027555;28;20182;-67
2022/08/27 07:58:03;;;;;;;7.70;1.80;;;;;;;;;;5028569;28;20182;-66
2022/08/27 08:00:28;;;;;;;5.50;1.55;;;;;;;;;;5028659;28;20298;-65
2022/08/27 08:02:54;;;;;;;3.13;1.13;;;;;;;;;;5027190;28;20653;-66
2022/08/27 08:05:19;;;;;;;7.88;1.27;;;;;;;;;;5029457;28;20210;-66
2022/08/27 08:07:45;;;;;;;5.28;1.30;;;;;;;;;;5029589;28;20645;-68
2022/08/27 08:10:10;;;;;;;4.13;1.17;;;;;;;;;;5027059;28;20190;-65
2022/08/27 08:12:39;;;;;;;4.78;1.20;;;;;;;;;;5028644;28;20213;-66
2022/08/27 08:15:08;;;;;;;5.93;1.50;;;;;;;;;;5029758;28;20214;-65
2022/08/27 08:17:34;;;;;;;5.63;1.17;;;;;;;;;;5029348;28;20190;-69
2022/08/27 08:19:59;;;;;;;3.75;1.30;;;;;;;;;;5028188;28;20478;-66
2022/08/27 08:22:26;;;;;;;6.13;1.48;;;;;;;;;;5026280;28;20186;-65
2022/08/27 08:24:52;;;;;;;7.50;1.20;;;;;;;;;;5026238;28;20230;-65
2022/08/27 08:27:18;;;;;;;5.05;1.48;;;;;;;;;;5027519;28;20274;-71
2022/08/27 08:29:44;;;;;;;8.82;1.48;;;;;;;;;;5025998;28;20193;-66
2022/08/27 08:32:09;;;;;;;7.10;1.25;;;;;;;;;;5024884;28;20315;-65
2022/08/27 08:34:35;;;;;;;5.88;1.30;;;;;;;;;;5023419;28;20761;-66
2022/08/27 08:37:01;;;;;;;6.38;1.50;;;;;;;;;;5027364;28;20244;-65
2022/08/27 08:39:26;;;;;;;5.78;1.35;;;;;;;;;;5026813;28;20560;-65
2022/08/27 08:41:55;;;;;;;7.93;1.67;;;;;;;;;;5020289;28;20407;-66
2022/08/27 08:44:29;;;;;;;18.13;3.53;;;;;;;;;;5026892;28;20265;-66
2022/08/27 08:47:00;;;;;;;4.07;1.30;;;;;;;;;;5020920;28;20197;-67
2022/08/27 08:49:28;;;;;;;7.25;1.73;;;;;;;;;;5027502;28;20186;-66
2022/08/27 08:51:58;;;;;;;4.70;1.55;;;;;;;;;;5027192;28;20567;-66
2022/08/27 08:54:29;;;;;;;6.38;1.70;;;;;;;;;;5019949;28;20215;-68
2022/08/27 08:57:12;;;;;;;6.90;1.45;;;;;;;;;;5026078;28;20273;-66
2022/08/27 08:59:44;;;;;;;5.18;1.60;;;;;;;;;;5025888;28;20715;-66
2022/08/27 09:02:13;;;;;;;3.75;1.35;;;;;;;;;;4320883;28;10000826;-66
2022/08/27 09:04:40;;;;;;;4.50;1.20;;;;;;;;;;5025297;28;20253;-66
2022/08/27 09:07:19;;;;;;;6.05;1.60;;;;;;;;;;5023882;28;20182;-66
2022/08/27 09:10:09;;;;;;;4.60;1.13;;;;;;;;;;5015473;28;20186;-66
2022/08/27 09:12:34;;;;;;;7.22;1.42;;;;;;;;;;5022906;28;20553;-66
2022/08/27 09:15:20;;;;;;;2.97;1.30;;;;;;;;;;5017399;28;20201;-66
2022/08/27 09:17:47;;;;;;;6.53;1.45;;;;;;;;;;5017031;28;20206;-65
2022/08/27 09:20:16;;;;;;;6.57;1.73;;;;;;;;;;5024542;28;20186;-65
2022/08/27 09:22:56;;;;;;;4.80;1.33;;;;;;;;;;5024900;28;20681;-66
2022/08/27 09:25:33;;;;;;;3.58;1.00;;;;;;;;;;5021323;28;20228;-66
2022/08/27 09:28:03;;;;;;;4.32;1.75;;;;;;;;;;5022514;28;20186;-67
2022/08/27 09:30:31;;;;;;;5.65;1.45;;;;;;;;;;5020573;28;20479;-66
2022/08/27 09:33:03;;;;;;;5.47;1.35;;;;;;;;;;5031864;28;20202;-67
2022/08/27 09:35:38;;;;;;;5.75;1.65;;;;;;;;;;5025748;28;20224;-65
2022/08/27 09:38:03;;;;;;;4.50;1.13;;;;;;;;;;5023941;28;20204;-66
2022/08/27 09:40:40;;;;;;;5.65;1.25;;;;;;;;;;5022766;28;20198;-66
2022/08/27 09:43:19;;;;;;;5.82;1.10;;;;;;;;;;5019821;28;20185;-66
2022/08/27 09:45:50;;;;;;;4.15;1.65;;;;;;;;;;5021614;28;20658;-64
2022/08/27 09:48:24;;;;;;;6.25;1.38;;;;;;;;;;5023845;28;20192;-65
2022/08/27 09:50:53;;;;;;;6.85;1.48;;;;;;;;;;5018658;28;20202;-65
2022/08/27 09:53:20;;;;;;;5.53;1.05;;;;;;;;;;5015363;28;20238;-65
2022/08/27 09:55:57;;;;;;;7.10;1.48;;;;;;;;;;5023105;28;20203;-65
2022/08/27 09:58:32;;;;;;;7.43;1.42;;;;;;;;;;5020211;28;20174;-65
2022/08/27 10:01:04;;;;;;;4.40;1.33;;;;;;;;;;5021691;28;20182;-64
2022/08/27 10:03:30;;;;;;;5.50;1.40;;;;;;;;;;5013844;28;20200;-65
2022/08/27 10:05:55;;;;;;;5.35;1.30;;;;;;;;;;5021214;28;20190;-64
2022/08/27 10:08:49;;;;;;;2.75;1.20;;;;;;;;;;5025950;28;20539;-64
2022/08/27 10:11:38;;;;;;;6.43;1.17;;;;;;;;;;5014417;28;20525;-65
2022/08/27 10:14:20;;;;;;;3.67;1.30;;;;;;;;;;5015294;28;20742;-66
2022/08/27 10:17:05;;;;;;;4.78;1.60;;;;;;;;;;5022748;28;20186;-65
2022/08/27 10:19:52;;;;;;;4.50;1.33;;;;;;;;;;5013010;28;20187;-66
2022/08/27 10:22:46;;;;;;;6.18;1.55;;;;;;;;;;5020388;28;20186;-65
2022/08/27 10:25:18;;;;;;;3.33;1.08;;;;;;;;;;5019622;28;20226;-65
2022/08/27 10:28:28;;;;;;;5.88;1.35;;;;;;;;;;5024937;28;20755;-64
2022/08/27 10:31:04;;;;;;;4.38;1.35;;;;;;;;;;5007289;28;20363;-64
2022/08/27 10:33:45;;;;;;;8.48;1.20;;;;;;;;;;5024328;28;20217;-64
2022/08/27 10:36:28;;;;;;;3.70;1.25;;;;;;;;;;5024709;28;20646;-66
2022/08/27 10:39:21;;;;;;;7.75;1.40;;;;;;;;;;5027899;28;20284;-65
2022/08/27 10:42:15;;;;;;;5.20;1.75;;;;;;;;;;5028337;28;20542;-65
2022/08/27 10:45:19;;;;;;;7.40;1.38;;;;;;;;;;5026552;28;20182;-66
2022/08/27 10:47:58;;;;;;;4.85;1.15;;;;;;;;;;5000240;28;20273;-66
2022/08/27 10:50:38;;;;;;;4.97;1.30;;;;;;;;;;5019627;28;20197;-65
2022/08/27 10:53:09;;;;;;;5.05;1.33;;;;;;;;;;5023972;28;20736;-65
2022/08/27 10:55:41;;;;;;;5.10;1.30;;;;;;;;;;5029081;28;20680;-65
2022/08/27 10:58:31;;;;;;;7.40;1.40;;;;;;;;;;5028746;28;20193;-68
2022/08/27 11:01:10;;;;;;;5.70;1.48;;;;;;;;;;5019436;28;20178;-65
2022/08/27 11:04:05;;;;;;;5.28;1.20;;;;;;;;;;5018767;28;20170;-65
2022/08/27 11:06:58;;;;;;;4.05;1.30;;;;;;;;;;5026906;28;20525;-65
2022/08/27 11:09:39;;;;;;;4.22;1.10;;;;;;;;;;5026690;28;20256;-65
2022/08/27 11:12:09;;;;;;;6.30;1.40;;;;;;;;;;5026313;28;21425;-69
2022/08/27 11:14:59;;;;;;;5.03;1.33;;;;;;;;;;5024078;28;20559;-67
2022/08/27 11:17:53;;;;;;;8.23;1.70;;;;;;;;;;5023901;28;20185;-68
2022/08/27 11:20:28;;;;;;;4.82;1.30;;;;;;;;;;5022962;28;20247;-66
2022/08/27 11:23:04;;;;;;;4.68;1.23;;;;;;;;;;5027478;28;20190;-64
2022/08/27 11:25:51;;;;;;;4.45;1.40;;;;;;;;;;5028066;28;20225;-65
2022/08/27 11:28:21;;;;;;;6.65;1.70;;;;;;;;;;5029083;28;20680;-66
2022/08/27 11:30:46;;;;;;;11.93;1.67;;;;;;;;;;5027989;28;20312;-66
2022/08/27 11:33:23;;;;;;;5.63;1.98;;;;;;;;;;5030520;28;20248;-66
2022/08/27 11:36:13;;;;;;;7.63;1.50;;;;;;;;;;5030673;28;20247;-66
2022/08/27 11:39:01;;;;;;;6.57;1.75;;;;;;;;;;5029924;28;20265;-66
2022/08/27 11:41:45;;;;;;;6.90;1.42;;;;;;;;;;5026237;28;20206;-66
2022/08/27 11:44:16;;;;;;;4.55;1.30;;;;;;;;;;5028150;28;20193;-65
2022/08/27 11:46:48;;;;;;;6.05;1.90;;;;;;;;;;5024537;28;20561;-65
2022/08/27 11:49:36;;;;;;;5.60;1.40;;;;;;;;;;5020743;28;20341;-65
2022/08/27 11:52:08;;;;;;;5.55;1.35;;;;;;;;;;5027217;28;20209;-66
2022/08/27 11:54:49;;;;;;;6.72;1.73;;;;;;;;;;5026864;28;20190;-65
2022/08/27 11:57:30;;;;;;;7.22;1.50;;;;;;;;;;5023161;28;20179;-63
2022/08/27 11:59:56;;;;;;;2.63;1.27;;;;;;;;;;5029263;28;20474;-67
2022/08/27 12:02:26;;;;;;;6.35;1.48;;;;;;;;;;5024892;28;20239;-65
2022/08/27 12:04:56;;;;;;;5.18;1.60;;;;;;;;;;5025336;28;20182;-65
2022/08/27 12:07:28;;;;;;;6.43;1.48;;;;;;;;;;5027398;28;20186;-65
2022/08/27 12:09:53;;;;;;;4.60;1.40;;;;;;;;;;5026375;28;20243;-66
2022/08/27 12:12:44;;;;;;;5.57;1.40;;;;;;;;;;5027466;28;20277;-65
2022/08/27 12:15:19;;;;;;;12.68;1.85;;;;;;;;;;5025768;28;20582;-64
2022/08/27 12:17:57;;;;;;;8.35;1.38;;;;;;;;;;5026573;28;20185;-63
2022/08/27 12:20:47;;;;;;;8.10;1.40;;;;;;;;;;5029003;28;20192;-64
2022/08/27 12:23:39;;;;;;;6.43;1.58;;;;;;;;;;5028849;28;20673;-64
2022/08/27 12:26:33;;;;;;;8.02;1.60;;;;;;;;;;5028396;28;20230;-65
2022/08/27 12:29:22;;;;;;;5.50;1.35;;;;;;;;;;5028893;28;20181;-64
2022/08/27 12:31:49;;;;;;;6.38;1.70;;;;;;;;;;5026195;28;20213;-65
2022/08/27 12:34:18;;;;;;;11.05;1.65;;;;;;;;;;5029398;28;20664;-64
2022/08/27 12:36:47;;;;;;;6.32;1.60;;;;;;;;;;5029064;28;20170;-64
2022/08/27 12:39:16;;;;;;;7.63;1.50;;;;;;;;;;5023068;28;20196;-63
2022/08/27 12:41:47;;;;;;;4.55;1.25;;;;;;;;;;5028142;28;20212;-64
2022/08/27 12:44:23;;;;;;;7.18;1.25;;;;;;;;;;5025255;28;20196;-65
2022/08/27 12:46:53;;;;;;;8.77;1.40;;;;;;;;;;5029358;28;20178;-64
2022/08/27 12:49:21;;;;;;;6.85;1.50;;;;;;;;;;5023431;28;20182;-65
2022/08/27 12:51:47;;;;;;;7.75;1.33;;;;;;;;;;5028727;28;20284;-64
2022/08/27 12:54:21;;;;;;;7.95;1.83;;;;;;;;;;5028929;28;20345;-65
2022/08/27 12:57:03;;;;;;;6.22;1.20;;;;;;;;;;5028321;28;20277;-64
2022/08/27 12:59:39;;;;;;;3.63;1.00;;;;;;;;;;5028584;28;20170;-67
2022/08/27 13:02:26;;;;;;;6.72;1.35;;;;;;;;;;5028542;28;20265;-63
2022/08/27 13:04:52;;;;;;;6.28;1.10;;;;;;;;;;5027867;28;20200;-67
2022/08/27 13:07:25;;;;;;;5.45;1.35;;;;;;;;;;5029623;28;20190;-66
2022/08/27 13:09:51;;;;;;;4.45;1.35;;;;;;;;;;5025622;28;20281;-68
2022/08/27 13:12:18;;;;;;;5.00;1.45;;;;;;;;;;5025046;28;20722;-66
2022/08/27 13:14:44;;;;;;;7.95;1.48;;;;;;;;;;5026404;28;20206;-66
2022/08/27 13:17:20;;;;;;;7.80;1.52;;;;;;;;;;5028533;28;20428;-66
2022/08/27 13:19:57;;;;;;;8.75;1.70;;;;;;;;;;5028085;28;20281;-65
2022/08/27 13:22:27;;;;;;;6.53;1.20;;;;;;;;;;5028774;28;20185;-67
2022/08/27 13:24:54;;;;;;;5.30;1.10;;;;;;;;;;5025548;28;20313;-69
2022/08/27 13:27:29;;;;;;;9.52;1.20;;;;;;;;;;5028052;28;20270;-65
2022/08/27 13:29:59;;;;;;;4.53;1.30;;;;;;;;;;5027483;28;20269;-65
2022/08/27 13:32:27;;;;;;;3.70;1.35;;;;;;;;;;5026138;28;20252;-65
2022/08/27 13:34:53;;;;;;;4.47;0.95;;;;;;;;;;5026468;28;20593;-65
2022/08/27 13:37:26;;;;;;;9.13;1.40;;;;;;;;;;5027511;28;20182;-64
2022/08/27 13:39:54;;;;;;;8.18;1.60;;;;;;;;;;5028467;28;20681;-67
2022/08/27 13:42:20;;;;;;;7.57;1.27;;;;;;;;;;5023425;28;20700;-65
2022/08/27 13:44:46;;;;;;;5.05;1.30;;;;;;;;;;5026043;28;20251;-65
2022/08/27 13:47:19;;;;;;;5.65;1.40;;;;;;;;;;5026407;28;20178;-65
2022/08/27 13:49:44;;;;;;;4.00;1.23;;;;;;;;;;5026452;28;20548;-65
2022/08/27 13:52:26;;;;;;;5.55;1.42;;;;;;;;;;5027093;28;20178;-65
2022/08/27 13:55:08;;;;;;;4.43;1.30;;;;;;;;;;5026145;28;20213;-64
2022/08/27 13:57:48;;;;;;;8.32;1.35;;;;;;;;;;5025538;28;20198;-67
2022/08/27 14:00:17;;;;;;;5.20;1.13;;;;;;;;;;5025812;28;20206;-65
2022/08/27 14:02:45;;;;;;;5.40;1.25;;;;;;;;;;5022854;28;20681;-64
2022/08/27 14:05:14;;;;;;;4.45;1.10;;;;;;;;;;5026569;28;20563;-65
2022/08/27 14:07:46;;;;;;;4.45;1.17;;;;;;;;;;5026618;28;20193;-64
2022/08/27 14:10:17;;;;;;;7.05;1.27;;;;;;;;;;5026786;28;20372;-64
2022/08/27 14:12:46;;;;;;;5.70;1.33;;;;;;;;;;5025053;28;20239;-65
2022/08/27 14:15:42;;;;;;;7.10;1.92;;;;;;;;;;5025656;28;20205;-68
2022/08/27 14:18:20;;;;;;;3.90;1.20;;;;;;;;;;5025169;28;20260;-65
2022/08/27 14:20:46;;;;;;;3.58;1.13;;;;;;;;;;5026928;28;20208;-65
2022/08/27 14:23:11;;;;;;;4.82;1.20;;;;;;;;;;5026873;28;20662;-64
2022/08/27 14:25:36;;;;;;;6.43;1.52;;;;;;;;;;5027011;28;20299;-68
2022/08/27 14:28:02;;;;;;;6.40;1.08;;;;;;;;;;5025444;28;20190;-65
2022/08/27 14:30:27;;;;;;;8.88;1.40;;;;;;;;;;5025693;28;20173;-64
2022/08/27 14:32:53;;;;;;;5.75;1.20;;;;;;;;;;5028010;28;20301;-64
2022/08/27 14:35:19;;;;;;;4.95;1.60;;;;;;;;;;5022227;28;20209;-65
2022/08/27 14:37:44;;;;;;;3.92;1.25;;;;;;;;;;5024671;28;20186;-67
2022/08/27 14:40:12;;;;;;;5.38;1.30;;;;;;;;;;5023734;28;20213;-65
2022/08/27 14:42:39;;;;;;;1.98;0.90;;;;;;;;;;5027342;28;20189;-65
2022/08/27 14:45:05;;;;;;;6.22;1.30;;;;;;;;;;5025101;28;20209;-65
2022/08/27 14:47:31;;;;;;;4.63;1.02;;;;;;;;;;5026511;28;20183;-65
2022/08/27 14:49:57;;;;;;;7.10;1.30;;;;;;;;;;5026582;28;20184;-65
2022/08/27 14:52:22;;;;;;;4.60;1.67;;;;;;;;;;5025859;28;20194;-66
2022/08/27 14:54:47;;;;;;;5.63;1.20;;;;;;;;;;5023649;28;20555;-66
2022/08/27 14:57:13;;;;;;;8.02;1.45;;;;;;;;;;5026770;28;20182;-67
2022/08/27 14:59:38;;;;;;;3.50;0.80;;;;;;;;;;5021614;28;20194;-65
2022/08/27 15:02:07;;;;;;;3.50;1.48;;;;;;;;;;5028661;28;20678;-65
2022/08/27 15:04:33;;;;;;;5.97;1.02;;;;;;;;;;5028054;28;20594;-65
2022/08/27 15:06:58;;;;;;;12.27;1.75;;;;;;;;;;5029882;28;20184;-66
2022/08/27 15:09:25;;;;;;;4.82;1.00;;;;;;;;;;5029437;28;20193;-65